Latest Weather Observations for Bushy Park

IDT60801

Issued at 9:31 pm EST Monday 4 May 2015 (issued every 30 minutes, with the page automatically refreshed every 10 minutes)

About weather observations | Map of weather stations | Latest weather observations for TAS | Other Formats
Station Details ID: 095003 Name: BUSHY PARK (BUSHY PARK ESTATES) Lat: -42.71 Lon: 146.90 Height: 27.0 m
Data from the previous 72 hours. | See also: Recent months at Bushy Park
Date/Time
EST
Temp
°C
App
Temp
°C
Dew
Point
Rel
Hum
%
Delta-T
°C
Wind Press
QNH
hPa
Press
MSL
hPa
Rain
since 9 am
mm
Dir
 
Spd
km/h
Gust
km/h
Spd
kts
Gust
kts
04/09:30pm 9.4 9.1 8.6 95 0.4 CALM 0 0 0 0 - - 0.0
04/09:00pm 9.8 8.2 8.8 93 0.5 SW 7 9 4 5 - - 0.0
04/08:30pm 10.1 8.5 8.9 92 0.6 WSW 7 11 4 6 - - 0.0
04/08:00pm 10.3 9.0 9.1 92 0.6 SW 6 9 3 5 - - 0.0
04/07:30pm 11.1 11.0 9.3 89 0.9 CALM 0 6 0 3 - - 0.0
04/07:00pm 11.1 10.3 9.5 90 0.8 WNW 4 7 2 4 - - 0.0
04/06:30pm 11.7 11.7 9.7 87 1.0 CALM 0 9 0 5 - - 0.0
04/06:00pm 12.0 11.3 9.9 87 1.1 E 4 9 2 5 - - 0.0
04/05:30pm 12.9 11.6 10.0 82 1.5 W 7 9 4 5 - - 0.0
04/05:00pm 13.8 11.9 9.1 73 2.4 W 9 11 5 6 - - 0.0
04/04:30pm 14.1 12.6 9.0 71 2.6 SSE 7 9 4 5 - - 0.0
04/04:00pm 14.2 12.9 10.0 76 2.2 SSE 7 9 4 5 - - 0.0
04/03:30pm 14.6 14.5 9.6 72 2.6 CALM 0 0 0 0 - - 0.0
04/03:00pm 14.9 14.6 8.6 66 3.2 CALM 0 0 0 0 - - 0.0
04/02:30pm 15.3 14.4 7.8 61 3.7 ESE 2 7 1 4 - - 0.0
04/02:00pm 14.6 12.8 8.1 65 3.3 ESE 7 11 4 6 - - 0.0
04/01:30pm 14.0 12.3 8.2 68 2.9 ENE 7 11 4 6 - - 0.0
04/01:00pm 13.5 11.4 8.3 71 2.6 ENE 9 11 5 6 - - 0.0
04/12:30pm 12.7 11.0 8.3 74 2.2 N 7 9 4 5 - - 0.0
04/12:00pm 11.9 10.2 8.3 78 1.8 S 7 11 4 6 - - 0.0
04/11:30am 10.6 8.5 8.2 85 1.2 ENE 9 13 5 7 - - 0.0
04/11:00am 9.5 8.2 7.8 89 0.8 N 4 9 2 5 - - 0.0
04/10:30am 8.9 7.6 7.6 91 0.6 E 4 9 2 5 - - 0.0
04/10:00am 8.3 6.7 7.9 97 0.2 ENE 6 7 3 4 - - 0.0
04/09:30am 7.7 6.8 7.7 100 0.0 NE 2 7 1 4 - - 0.0
04/09:00am 7.1 5.1 7.1 100 0.0 N 7 9 4 5 - - 0.2
04/08:30am 7.0 4.9 6.8 99 0.1 NNW 7 9 4 5 - - 0.2
04/08:00am 7.1 5.2 6.7 97 0.2 N 6 9 3 5 - - 0.2
04/07:30am 6.7 4.6 6.5 99 0.1 NNE 7 9 4 5 - - 0.2
04/07:00am 6.4 3.8 6.2 99 0.1 NNE 9 11 5 6 - - 0.2
04/06:30am 6.9 4.8 6.7 99 0.1 N 7 9 4 5 - - 0.2
04/06:00am 7.0 4.9 6.6 97 0.2 NNW 7 9 4 5 - - 0.2
04/05:30am 6.6 4.1 6.4 99 0.1 NNW 9 9 5 5 - - 0.2
04/05:00am 6.7 5.9 6.3 97 0.2 CALM 0 0 0 0 - - 0.2
04/04:30am 6.4 5.5 6.0 97 0.2 CALM 0 0 0 0 - - 0.2
04/04:00am 5.5 4.4 5.0 97 0.2 CALM 0 0 0 0 - - 0.2
04/03:30am 5.7 3.4 5.5 99 0.1 NW 7 9 4 5 - - 0.2
04/03:00am 5.9 4.9 5.5 97 0.2 CALM 0 0 0 0 - - 0.2
04/02:30am 6.4 4.3 6.0 97 0.2 NNE 6 7 3 4 - - 0.2
04/02:00am 6.6 4.0 6.2 97 0.2 NNW 9 13 5 7 - - 0.2
04/01:30am 6.9 4.8 6.5 97 0.2 S 7 7 4 4 - - 0.2
04/01:00am 7.7 5.8 6.8 94 0.4 N 6 9 3 5 - - 0.2
04/12:30am 8.5 7.3 7.9 96 0.3 S 4 11 2 6 - - 0.2
04/12:00am 9.8 9.2 8.8 93 0.5 SW 2 7 1 4 - - 0.2
 
Date/Time
EST
Temp
°C
App
Temp
°C
Dew
Point
Rel
Hum
%
Delta-T
°C
Wind Press
QNH
hPa
Press
MSL
hPa
Rain
since 9 am
mm
Dir
 
Spd
km/h
Gust
km/h
Spd
kts
Gust
kts
03/11:30pm 10.0 9.8 9.0 93 0.5 CALM 0 4 0 2 - - 0.2
03/11:00pm 10.2 8.7 9.2 93 0.5 WNW 7 9 4 5 - - 0.2
03/10:30pm 9.8 8.2 8.6 92 0.6 W 7 11 4 6 - - 0.2
03/10:00pm 9.9 9.2 8.7 92 0.6 NNE 2 7 1 4 - - 0.2
03/09:30pm 9.8 7.8 8.8 93 0.5 SSW 9 9 5 5 - - 0.2
03/09:00pm 10.9 10.4 9.5 91 0.7 NNW 2 7 1 4 - - 0.2
03/08:30pm 11.8 11.6 10.3 90 0.8 ENE 2 7 1 4 - - 0.2
03/08:00pm 12.2 10.4 10.7 90 0.8 SSW 11 11 6 6 - - 0.2
03/07:30pm 12.9 12.4 10.8 87 1.1 NE 4 7 2 4 - - 0.2
03/07:00pm 13.5 13.8 10.9 84 1.4 CALM 0 0 0 0 - - 0.2
03/06:30pm 13.9 12.6 11.1 83 1.5 SW 9 11 5 6 - - 0.2
03/06:00pm 14.5 13.5 11.1 80 1.8 WSW 7 9 4 5 - - 0.2
03/05:30pm 14.9 15.3 11.2 78 2.0 CALM 0 6 0 3 - - 0.2
03/05:00pm 15.5 14.4 10.6 72 2.6 SW 7 9 4 5 - - 0.2
03/04:30pm 16.5 14.7 9.5 63 3.6 W 9 11 5 6 - - 0.2
03/04:00pm 16.7 15.3 9.5 62 3.8 W 7 11 4 6 - - 0.2
03/03:30pm 17.1 15.3 8.1 55 4.6 NW 7 9 4 5 - - 0.2
03/03:00pm 18.2 16.8 8.9 54 4.8 WSW 6 7 3 4 - - 0.2
03/02:30pm 17.5 15.9 8.2 54 4.8 WNW 6 9 3 5 - - 0.2
03/02:00pm 17.9 16.8 8.5 54 4.8 W 4 7 2 4 - - 0.2
03/01:30pm 17.2 15.6 7.8 54 4.8 S 6 9 3 5 - - 0.2
03/01:00pm 17.6 15.3 7.3 51 5.2 SW 9 11 5 6 - - 0.0
03/12:30pm 16.9 15.0 7.6 54 4.7 SSE 7 11 4 6 - - 0.0
03/12:00pm 16.4 14.8 8.7 60 3.9 S 7 9 4 5 - - 0.0
03/11:30am 15.9 14.2 8.5 61 3.8 SSE 7 11 4 6 - - 0.0
03/11:00am 15.3 13.3 8.7 64 3.4 NNE 9 13 5 7 - - 0.0
03/10:30am 14.2 12.2 8.5 68 2.9 S 9 11 5 6 - - 0.0
03/10:00am 13.3 11.8 9.0 75 2.2 SE 7 11 4 6 - - 0.0
03/09:30am 12.5 12.3 9.2 80 1.7 CALM 0 4 0 2 - - 0.0
03/09:00am 11.6 10.1 9.0 84 1.3 SSE 7 11 4 6 - - 10.6
03/08:30am 9.5 8.1 8.9 96 0.3 SSE 6 9 3 5 - - 10.6
03/08:00am 7.6 5.2 7.2 97 0.2 W 9 13 5 7 - - 10.6
03/07:30am 6.6 4.1 6.4 99 0.1 N 9 15 5 8 - - 10.6
03/07:00am 6.7 5.5 6.3 97 0.2 ESE 2 7 1 4 - - 10.6
03/06:30am 6.3 3.7 6.1 99 0.1 NW 9 11 5 6 - - 10.6
03/06:00am 7.0 4.5 6.6 97 0.2 W 9 13 5 7 - - 10.6
03/05:30am 7.1 5.1 6.9 99 0.1 SW 7 15 4 8 - - 10.6
03/05:00am 6.8 4.7 6.6 99 0.1 WNW 7 13 4 7 - - 10.6
03/04:30am 8.1 7.2 7.7 97 0.2 SSW 2 9 1 5 - - 10.6
03/04:00am 8.1 6.2 7.7 97 0.2 NNE 7 13 4 7 - - 10.6
03/03:30am 8.0 6.1 7.6 97 0.2 N 7 17 4 9 - - 10.6
03/03:00am 7.9 4.9 7.5 97 0.2 NW 13 17 7 9 - - 10.6
03/02:30am 8.0 6.4 7.8 99 0.1 NNW 6 7 3 4 - - 10.6
03/02:00am 8.5 8.2 8.5 100 0.0 CALM 0 6 0 3 - - 10.6
03/01:30am 8.9 7.4 8.5 97 0.2 SE 6 13 3 7 - - 10.6
03/01:00am 9.3 8.0 9.1 99 0.1 W 6 9 3 5 - - 10.6
03/12:30am 9.5 9.3 9.1 97 0.2 CALM 0 0 0 0 - - 10.6
03/12:00am 9.4 9.2 9.0 97 0.2 CALM 0 0 0 0 - - 10.6
 
Date/Time
EST
Temp
°C
App
Temp
°C
Dew
Point
Rel
Hum
%
Delta-T
°C
Wind Press
QNH
hPa
Press
MSL
hPa
Rain
since 9 am
mm
Dir
 
Spd
km/h
Gust
km/h
Spd
kts
Gust
kts
02/11:30pm 9.4 7.9 9.0 97 0.2 NNE 7 7 4 4 - - 10.6
02/11:00pm 9.3 8.7 8.9 97 0.2 NNW 2 6 1 3 - - 10.6
02/10:30pm 9.1 7.7 8.9 99 0.1 W 6 7 3 4 - - 10.6
02/10:00pm 9.0 7.9 8.4 96 0.3 WNW 4 9 2 5 - - 10.6
02/09:30pm 8.1 7.6 7.9 99 0.1 CALM 0 0 0 0 - - 10.6
02/09:00pm 9.2 8.6 8.8 97 0.2 NNW 2 9 1 5 - - 10.4
02/08:30pm 10.1 10.0 9.5 96 0.3 CALM 0 6 0 3 - - 10.4
02/08:00pm 10.9 9.7 10.3 96 0.3 W 7 9 4 5 - - 10.4
02/07:30pm 11.2 10.1 10.6 96 0.3 S 7 11 4 6 - - 10.4
02/07:00pm 11.3 9.8 10.5 95 0.4 SSE 9 15 5 8 - - 10.4
02/06:30pm 11.5 9.7 10.9 96 0.3 S 11 15 6 8 - - 10.4
02/06:00pm 11.8 9.7 11.0 95 0.4 SSE 13 15 7 8 - - 10.2
02/05:30pm 12.0 9.5 11.2 95 0.4 NNE 15 19 8 10 - - 9.0
02/05:00pm 12.5 11.2 11.4 93 0.6 W 9 17 5 9 - - 6.6
02/04:30pm 12.1 11.8 11.3 95 0.4 NE 4 7 2 4 - - 1.8
02/04:00pm 12.3 12.3 11.0 92 0.7 N 2 11 1 6 - - 1.2
02/03:30pm 12.6 13.0 11.1 91 0.8 CALM 0 0 0 0 - - 0.6
02/03:00pm 12.6 11.6 10.9 89 0.9 SSE 7 9 4 5 - - 0.6
02/02:30pm 13.5 13.0 9.4 76 2.1 N 2 9 1 5 - - 0.0
02/02:00pm 14.1 12.3 8.1 67 3.0 N 7 11 4 6 - - 0.0
02/01:30pm 13.7 12.6 8.3 70 2.7 N 4 9 2 5 - - 0.0
02/01:00pm 13.1 11.2 7.6 69 2.7 NNE 7 9 4 5 - - 0.0
02/12:30pm 12.4 11.0 7.3 71 2.5 N 4 9 2 5 - - 0.0
02/12:00pm 11.6 10.5 7.0 73 2.2 NNE 2 9 1 5 - - 0.0
02/11:30am 11.3 9.8 6.9 74 2.1 ENE 4 7 2 4 - - 0.0
02/11:00am 10.5 8.4 6.7 77 1.8 NNE 7 9 4 5 - - 0.0
02/10:30am 9.8 8.3 6.6 80 1.5 NNE 4 7 2 4 - - 0.0
02/10:00am 9.1 7.1 6.3 83 1.3 NNE 6 9 3 5 - - 0.0
02/09:30am 8.2 6.0 6.0 86 1.0 N 7 9 4 5 - - 0.0
02/09:00am 6.9 4.7 5.3 89 0.7 SSW 6 9 3 5 - - 0.0
02/08:30am 5.8 4.6 4.7 93 0.5 CALM 0 0 0 0 - - 0.0
02/08:00am 5.2 4.0 4.5 95 0.3 CALM 0 0 0 0 - - 0.0
02/07:30am 4.7 3.4 4.0 95 0.3 CALM 0 0 0 0 - - 0.0
02/07:00am 4.5 3.1 3.5 93 0.4 CALM 0 0 0 0 - - 0.0
02/06:30am 4.6 3.3 3.9 95 0.3 CALM 0 0 0 0 - - 0.0
02/06:00am 4.4 3.1 3.9 97 0.2 CALM 0 0 0 0 - - 0.0
02/05:30am 4.5 3.1 3.8 95 0.3 CALM 0 0 0 0 - - 0.0
02/05:00am 4.5 2.0 3.8 95 0.3 N 6 6 3 3 - - 0.0
02/04:30am 4.5 1.8 3.8 95 0.3 SW 7 9 4 5 - - 0.0
02/04:00am 4.5 1.8 3.8 95 0.3 NNE 7 7 4 4 - - 0.0
02/03:30am 4.6 3.2 3.6 93 0.4 CALM 0 0 0 0 - - 0.0
02/03:00am 4.0 2.6 3.3 95 0.3 CALM 0 0 0 0 - - 0.0
02/02:30am 4.0 2.6 3.3 95 0.3 CALM 0 7 0 4 - - 0.0
02/02:00am 4.3 2.9 3.6 95 0.3 CALM 0 0 0 0 - - 0.0
02/01:30am 4.7 3.3 3.8 94 0.4 CALM 0 0 0 0 - - 0.0
02/01:00am 4.7 3.3 3.8 94 0.4 CALM 0 0 0 0 - - 0.0
02/12:30am 5.0 2.5 3.8 92 0.5 WSW 6 7 3 4 - - 0.0
02/12:00am 5.1 3.8 3.9 92 0.5 CALM 0 0 0 0 - - 0.0
 
Date/Time
EST
Temp
°C
App
Temp
°C
Dew
Point
Rel
Hum
%
Delta-T
°C
Wind Press
QNH
hPa
Press
MSL
hPa
Rain
since 9 am
mm
Dir
 
Spd
km/h
Gust
km/h
Spd
kts
Gust
kts
01/11:30pm 5.2 3.9 4.0 92 0.5 CALM 0 0 0 0 - - 0.0
01/11:00pm 4.7 3.3 3.5 92 0.5 CALM 0 0 0 0 - - 0.0
01/10:30pm 4.8 3.4 3.6 92 0.5 CALM 0 2 0 1 - - 0.0
01/10:00pm 5.2 3.8 3.8 91 0.6 CALM 0 0 0 0 - - 0.0

Other Formats:

Comma delimited format used in spreadsheet applications
http://www.bom.gov.au/fwo/IDT60801/IDT60801.94964.axf

JavaScript Object Notation format (JSON) in row-major order
http://www.bom.gov.au/fwo/IDT60801/IDT60801.94964.json